createdAt,value
2022-09-10T00:01:18.742Z,69.46
2022-09-10T00:03:46.514Z,69.50
2022-09-10T00:06:14.184Z,69.40
2022-09-10T00:08:41.082Z,69.50
2022-09-10T00:11:10.281Z,69.39
2022-09-10T00:13:39.510Z,69.59
2022-09-10T00:16:09.633Z,69.48
2022-09-10T00:18:37.441Z,69.55
2022-09-10T00:21:14.352Z,69.63
2022-09-10T00:23:45.989Z,69.60
2022-09-10T00:26:23.480Z,69.50
2022-09-10T00:28:52.138Z,69.39
2022-09-10T00:31:20.201Z,69.34
2022-09-10T00:33:47.132Z,69.45
2022-09-10T00:36:26.013Z,69.42
2022-09-10T00:38:55.233Z,69.33
2022-09-10T00:41:25.059Z,69.47
2022-09-10T00:44:35.546Z,69.44
2022-09-10T00:47:02.767Z,69.40
2022-09-10T00:49:42.388Z,69.38
2022-09-10T00:52:10.100Z,69.51
2022-09-10T00:54:39.461Z,69.50
2022-09-10T00:57:12.775Z,69.48
2022-09-10T00:59:47.056Z,69.40
2022-09-10T01:02:15.235Z,69.28
2022-09-10T01:04:43.575Z,69.39
2022-09-10T01:07:14.055Z,69.44
2022-09-10T01:09:41.289Z,69.34
2022-09-10T01:12:16.326Z,69.40
2022-09-10T01:14:58.247Z,69.30
2022-09-10T01:17:45.279Z,69.50
2022-09-10T01:20:36.362Z,69.41
2022-09-10T01:23:41.643Z,69.60
2022-09-10T01:26:52.253Z,69.43
2022-09-10T01:29:41.954Z,69.33
2022-09-10T01:32:15.718Z,69.39
2022-09-10T01:34:59.498Z,69.36
2022-09-10T01:37:30.448Z,69.48
2022-09-10T01:39:59.373Z,69.43
2022-09-10T01:42:28.205Z,69.52
2022-09-10T01:45:00.205Z,69.42
2022-09-10T01:47:51.785Z,69.54
2022-09-10T01:50:30.683Z,69.48
2022-09-10T01:53:21.020Z,69.45
2022-09-10T01:55:58.827Z,69.56
2022-09-10T01:58:38.474Z,69.47
2022-09-10T02:01:16.999Z,69.59
2022-09-10T02:03:48.257Z,69.46
2022-09-10T02:06:19.705Z,69.42
2022-09-10T02:08:50.251Z,69.53
2022-09-10T02:11:17.378Z,69.68
2022-09-10T02:13:44.397Z,69.58
2022-09-10T02:16:31.486Z,69.48
2022-09-10T02:18:59.966Z,69.63
2022-09-10T02:21:27.070Z,69.60
2022-09-10T02:24:04.565Z,69.40
2022-09-10T02:26:35.366Z,69.61
2022-09-10T02:29:02.321Z,69.70
2022-09-10T02:31:29.984Z,69.73
2022-09-10T02:33:57.018Z,69.63
2022-09-10T02:36:26.425Z,69.56
2022-09-10T02:38:53.952Z,69.58
2022-09-10T02:41:22.003Z,69.75
2022-09-10T02:43:49.054Z,69.68
2022-09-10T02:46:15.971Z,69.70
2022-09-10T02:48:42.865Z,69.56
2022-09-10T02:51:09.801Z,69.74
2022-09-10T02:53:36.587Z,69.62
2022-09-10T02:56:03.458Z,69.58
2022-09-10T02:58:34.337Z,69.51
2022-09-10T03:01:10.223Z,69.60
2022-09-10T03:03:38.211Z,69.47
2022-09-10T03:06:05.691Z,69.42
2022-09-10T03:08:32.939Z,69.50
2022-09-10T03:11:00.150Z,69.60
2022-09-10T03:13:28.243Z,69.43
2022-09-10T03:15:59.093Z,69.46
2022-09-10T03:18:28.400Z,69.44
2022-09-10T03:20:55.352Z,69.48
2022-09-10T03:23:22.116Z,69.47
2022-09-10T03:25:49.892Z,69.47
2022-09-10T03:28:16.961Z,69.50
2022-09-10T03:30:43.828Z,69.44
2022-09-10T03:33:11.974Z,69.53
2022-09-10T03:35:39.060Z,69.56
2022-09-10T03:38:06.101Z,69.58
2022-09-10T03:40:34.347Z,69.37
2022-09-10T03:43:01.459Z,69.53
2022-09-10T03:45:28.868Z,69.51
2022-09-10T03:47:55.751Z,69.47
2022-09-10T03:50:22.690Z,69.59
2022-09-10T03:52:50.333Z,69.62
2022-09-10T03:55:18.223Z,69.65
2022-09-10T03:57:45.923Z,69.44
2022-09-10T04:00:12.991Z,69.46
2022-09-10T04:02:41.906Z,69.59
2022-09-10T04:05:09.458Z,69.54
2022-09-10T04:07:37.024Z,69.40
2022-09-10T04:10:04.429Z,69.44
2022-09-10T04:12:31.226Z,69.49
2022-09-10T04:14:58.153Z,69.48
2022-09-10T04:17:25.633Z,69.26
2022-09-10T04:19:52.453Z,69.29
2022-09-10T04:22:19.271Z,69.51
2022-09-10T04:24:46.099Z,69.37
2022-09-10T04:27:12.966Z,69.51
2022-09-10T04:29:39.777Z,69.47
2022-09-10T04:32:07.633Z,69.13
2022-09-10T04:34:34.534Z,69.39
2022-09-10T04:37:01.666Z,69.50
2022-09-10T04:39:28.490Z,69.38
2022-09-10T04:41:55.276Z,69.24
2022-09-10T04:44:22.120Z,69.36
2022-09-10T04:46:49.052Z,69.45
2022-09-10T04:49:15.860Z,69.35
2022-09-10T04:51:42.805Z,69.20
2022-09-10T04:54:13.735Z,69.31
2022-09-10T04:56:41.160Z,69.38
2022-09-10T04:59:07.997Z,69.27
2022-09-10T05:01:35.459Z,69.34
2022-09-10T05:04:03.470Z,69.41
2022-09-10T05:06:30.320Z,69.39
2022-09-10T05:08:57.147Z,69.41
2022-09-10T05:11:24.025Z,69.36
2022-09-10T05:13:51.058Z,69.35
2022-09-10T05:16:17.953Z,69.33
2022-09-10T05:18:44.792Z,69.40
2022-09-10T05:21:11.685Z,69.47
2022-09-10T05:23:39.745Z,69.43
2022-09-10T05:26:06.733Z,69.41
2022-09-10T05:28:33.614Z,69.53
2022-09-10T05:31:00.382Z,69.69
2022-09-10T05:33:27.262Z,69.55
2022-09-10T05:35:54.063Z,69.65
2022-09-10T05:38:20.964Z,69.55
2022-09-10T05:40:48.426Z,69.66
2022-09-10T05:43:15.622Z,69.54
2022-09-10T05:45:42.604Z,69.71
2022-09-10T05:48:09.508Z,69.66
2022-09-10T05:50:38.465Z,69.52
2022-09-10T05:53:05.383Z,69.58
2022-09-10T05:55:33.451Z,69.39
2022-09-10T05:58:00.281Z,69.55
2022-09-10T06:00:27.130Z,69.65
2022-09-10T06:02:54.045Z,69.66
2022-09-10T06:05:23.999Z,69.49
2022-09-10T06:07:51.163Z,69.73
2022-09-10T06:10:18.060Z,69.45
2022-09-10T06:12:49.954Z,69.47
2022-09-10T06:15:16.851Z,69.54
2022-09-10T06:17:43.721Z,69.50
2022-09-10T06:20:14.094Z,69.52
2022-09-10T06:22:41.000Z,69.64
2022-09-10T06:25:08.404Z,69.31
2022-09-10T06:27:35.356Z,69.50
2022-09-10T06:30:02.215Z,69.46
2022-09-10T06:32:29.080Z,69.63
2022-09-10T06:34:55.976Z,69.50
2022-09-10T06:37:23.215Z,69.51
2022-09-10T06:39:50.202Z,69.44
2022-09-10T06:42:17.287Z,69.43
2022-09-10T06:44:44.609Z,69.49
2022-09-10T06:47:55.463Z,69.35
2022-09-10T06:49:58.684Z,69.34
2022-09-10T06:52:25.909Z,69.38
2022-09-10T06:54:53.351Z,69.59
2022-09-10T06:57:20.309Z,69.29
2022-09-10T06:59:47.872Z,69.43
2022-09-10T07:02:15.612Z,69.45
2022-09-10T07:04:42.541Z,69.33
2022-09-10T07:07:09.943Z,69.24
2022-09-10T07:09:36.867Z,69.71
2022-09-10T07:12:05.111Z,69.49
2022-09-10T07:14:33.441Z,69.62
2022-09-10T07:17:00.338Z,69.57
2022-09-10T07:19:27.301Z,69.73
2022-09-10T07:21:54.160Z,69.69
2022-09-10T07:24:21.789Z,69.66
2022-09-10T07:26:48.756Z,69.87
2022-09-10T07:29:15.590Z,69.82
2022-09-10T07:31:42.439Z,69.74
2022-09-10T07:34:09.498Z,69.71
2022-09-10T07:36:36.417Z,70.07
2022-09-10T07:39:04.629Z,70.02
2022-09-10T07:41:34.569Z,70.38
2022-09-10T07:44:01.442Z,70.22
2022-09-10T07:46:28.803Z,70.15
2022-09-10T07:48:58.440Z,70.13
2022-09-10T07:51:28.129Z,70.08
2022-09-10T07:53:59.627Z,70.16
2022-09-10T07:56:26.980Z,70.09
2022-09-10T07:58:55.230Z,69.94
2022-09-10T08:01:22.124Z,69.86
2022-09-10T08:03:49.185Z,69.75
2022-09-10T08:06:17.031Z,69.87
2022-09-10T08:08:44.151Z,69.95
2022-09-10T08:11:17.734Z,69.82
2022-09-10T08:13:47.516Z,69.57
2022-09-10T08:16:17.750Z,69.70
2022-09-10T08:18:45.653Z,69.56
2022-09-10T08:21:12.802Z,69.67
2022-09-10T08:23:39.966Z,69.58
2022-09-10T08:26:08.590Z,69.57
2022-09-10T08:28:36.702Z,69.54
2022-09-10T08:31:09.385Z,69.47
2022-09-10T08:33:39.794Z,69.35
2022-09-10T08:36:09.115Z,69.38
2022-09-10T08:38:40.203Z,69.23
2022-09-10T08:41:14.126Z,69.23
2022-09-10T08:43:49.010Z,69.13
2022-09-10T08:46:28.079Z,68.97
2022-09-10T08:49:07.105Z,69.29
2022-09-10T08:51:44.726Z,69.12
2022-09-10T08:54:21.879Z,68.95
2022-09-10T08:56:50.084Z,69.13
2022-09-10T08:59:31.425Z,68.82
2022-09-10T09:02:03.958Z,69.06
2022-09-10T09:05:03.473Z,68.87
2022-09-10T09:07:39.954Z,69.07
2022-09-10T09:10:24.840Z,68.96
2022-09-10T09:13:10.002Z,69.24
2022-09-10T09:15:51.882Z,69.16
2022-09-10T09:18:28.788Z,67.94
2022-09-10T09:21:01.319Z,64.51
2022-09-10T09:23:57.063Z,64.17
2022-09-10T09:26:36.037Z,63.90
2022-09-10T09:29:13.216Z,63.47
2022-09-10T09:31:50.504Z,63.21
2022-09-10T09:34:32.857Z,62.95
2022-09-10T09:37:03.982Z,63.15
2022-09-10T09:40:02.766Z,62.81
2022-09-10T09:42:45.938Z,62.68
2022-09-10T09:45:23.761Z,62.77
2022-09-10T09:47:51.401Z,62.42
2022-09-10T09:50:21.282Z,62.47
2022-09-10T09:52:48.555Z,62.36
2022-09-10T09:55:43.566Z,62.23
2022-09-10T09:58:19.715Z,61.54
2022-09-10T10:00:48.782Z,61.45
2022-09-10T10:03:22.692Z,61.22
2022-09-10T10:05:49.667Z,61.65
2022-09-10T10:08:42.626Z,61.54
2022-09-10T10:11:12.155Z,61.31
2022-09-10T10:13:42.460Z,62.32
2022-09-10T10:16:24.158Z,62.28
2022-09-10T10:18:51.301Z,62.39
2022-09-10T10:21:30.611Z,62.21
2022-09-10T10:23:57.558Z,61.56
2022-09-10T10:26:32.833Z,62.83
2022-09-10T10:29:06.677Z,63.00
2022-09-10T10:31:47.709Z,62.61
2022-09-10T10:34:15.456Z,60.82
2022-09-10T10:36:58.460Z,61.80
2022-09-10T10:39:46.662Z,61.84
2022-09-10T10:42:23.262Z,61.03
2022-09-10T10:44:59.395Z,59.89
2022-09-10T10:47:43.562Z,61.67
2022-09-10T10:50:16.610Z,59.88
2022-09-10T10:53:15.058Z,60.17
2022-09-10T10:55:59.842Z,59.87
2022-09-10T10:58:56.261Z,60.24
2022-09-10T11:01:30.361Z,60.00
2022-09-10T11:04:18.983Z,61.69
2022-09-10T11:06:53.364Z,62.09
2022-09-10T11:09:39.291Z,62.69
2022-09-10T11:12:11.699Z,63.19
2022-09-10T11:14:48.935Z,63.45
2022-09-10T11:17:19.875Z,63.62
2022-09-10T11:20:34.778Z,62.33
2022-09-10T11:23:04.383Z,58.43
2022-09-10T11:25:37.644Z,59.70
2022-09-10T11:28:14.530Z,61.41
2022-09-10T11:30:48.409Z,60.20
2022-09-10T11:33:23.509Z,62.04
2022-09-10T11:36:05.834Z,58.60
2022-09-10T11:38:58.693Z,58.44
2022-09-10T11:41:30.300Z,60.20
2022-09-10T11:44:11.087Z,60.84
2022-09-10T11:46:37.997Z,58.11
2022-09-10T11:49:22.088Z,59.04
2022-09-10T11:51:49.890Z,58.42
2022-09-10T11:54:27.410Z,58.87
2022-09-10T11:57:28.377Z,60.20
2022-09-10T11:59:55.225Z,59.24
2022-09-10T12:02:48.096Z,59.09
2022-09-10T12:05:20.963Z,60.11
2022-09-10T12:08:04.211Z,58.63
2022-09-10T12:10:54.379Z,57.51
2022-09-10T12:13:22.873Z,59.62
2022-09-10T12:16:02.878Z,60.81
2022-09-10T12:18:42.788Z,60.93
2022-09-10T12:21:22.244Z,60.99
2022-09-10T12:23:49.819Z,61.36
2022-09-10T12:26:20.135Z,61.85
2022-09-10T12:28:53.126Z,62.07
2022-09-10T12:31:22.506Z,62.37
2022-09-10T12:33:51.492Z,62.49
2022-09-10T12:36:27.758Z,61.84
2022-09-10T12:39:20.441Z,62.55
2022-09-10T12:41:47.424Z,59.93
2022-09-10T12:44:36.502Z,59.79
2022-09-10T12:47:15.515Z,60.67
2022-09-10T12:49:49.583Z,58.18
2022-09-10T12:52:34.965Z,57.22
2022-09-10T12:55:01.825Z,57.65
2022-09-10T12:57:37.705Z,56.51
2022-09-10T13:00:13.494Z,56.37
2022-09-10T13:02:52.706Z,56.97
2022-09-10T13:05:23.399Z,56.18
2022-09-10T13:08:02.223Z,55.98
2022-09-10T13:10:30.312Z,54.98
2022-09-10T13:13:07.648Z,55.33
2022-09-10T13:15:37.725Z,55.28
2022-09-10T13:18:24.237Z,55.89
2022-09-10T13:20:51.592Z,56.12
2022-09-10T13:23:18.554Z,56.29
2022-09-10T13:25:48.085Z,55.94
2022-09-10T13:28:36.099Z,56.45
2022-09-10T13:31:17.746Z,55.63
2022-09-10T13:33:52.232Z,56.26
2022-09-10T13:36:25.304Z,56.72
2022-09-10T13:39:19.564Z,57.26
2022-09-10T13:42:11.135Z,58.25
2022-09-10T13:44:50.546Z,59.72
2022-09-10T13:47:22.848Z,60.12
2022-09-10T13:50:25.625Z,60.54
2022-09-10T13:53:00.417Z,60.89
2022-09-10T13:55:30.617Z,61.17
2022-09-10T13:58:19.360Z,61.24
2022-09-10T14:00:54.438Z,61.26
2022-09-10T14:03:31.841Z,61.86
2022-09-10T14:06:06.037Z,61.80
2022-09-10T14:08:40.162Z,61.73
2022-09-10T14:11:07.825Z,62.00
2022-09-10T14:13:41.877Z,61.99
2022-09-10T14:16:13.863Z,62.11
2022-09-10T14:18:58.715Z,62.02
2022-09-10T14:21:29.933Z,62.12
2022-09-10T14:24:02.082Z,62.09
2022-09-10T14:26:34.112Z,62.08
2022-09-10T14:29:25.031Z,62.04
2022-09-10T14:31:52.521Z,62.34
2022-09-10T14:34:34.345Z,62.30
2022-09-10T14:37:22.647Z,62.51
2022-09-10T14:39:49.836Z,62.67
2022-09-10T14:42:27.624Z,62.64
2022-09-10T14:44:55.050Z,62.35
2022-09-10T14:47:37.728Z,62.63
2022-09-10T14:50:40.476Z,62.63
2022-09-10T14:53:07.552Z,62.48
2022-09-10T14:55:36.991Z,62.79
2022-09-10T14:58:05.947Z,62.69
2022-09-10T15:00:34.582Z,62.85
2022-09-10T15:03:02.742Z,62.65
2022-09-10T15:05:30.371Z,62.83
2022-09-10T15:07:57.881Z,62.21
2022-09-10T15:10:25.217Z,58.85
2022-09-10T15:12:53.694Z,57.60
2022-09-10T15:15:20.911Z,56.68
2022-09-10T15:17:48.481Z,56.60
2022-09-10T15:20:17.271Z,56.30
2022-09-10T15:22:45.424Z,55.95
2022-09-10T15:25:39.425Z,55.41
2022-09-10T15:28:08.101Z,55.54
2022-09-10T15:30:36.515Z,54.75
2022-09-10T15:33:05.294Z,54.13
2022-09-10T15:35:32.905Z,54.47
2022-09-10T15:38:03.520Z,54.10
2022-09-10T15:40:31.931Z,53.85
2022-09-10T15:42:59.681Z,53.67
2022-09-10T15:45:27.393Z,54.15
2022-09-10T15:47:54.661Z,53.93
2022-09-10T15:50:21.786Z,53.91
2022-09-10T15:52:48.716Z,54.01
2022-09-10T15:55:15.752Z,53.52
2022-09-10T15:57:42.674Z,52.98
2022-09-10T16:00:10.482Z,53.51
2022-09-10T16:02:37.610Z,53.04
2022-09-10T16:05:05.690Z,52.30
2022-09-10T16:07:32.620Z,52.71
2022-09-10T16:09:59.660Z,52.73
2022-09-10T16:12:27.752Z,53.54
2022-09-10T16:14:54.934Z,53.33
2022-09-10T16:17:21.927Z,53.73
2022-09-10T16:19:49.977Z,53.93
2022-09-10T16:22:20.576Z,53.96
2022-09-10T16:24:48.335Z,54.07
2022-09-10T16:27:17.998Z,53.07
2022-09-10T16:29:46.726Z,53.57
2022-09-10T16:32:14.187Z,54.00
2022-09-10T16:34:41.446Z,53.98
2022-09-10T16:37:08.946Z,54.04
2022-09-10T16:39:36.011Z,54.04
2022-09-10T16:42:03.336Z,54.64
2022-09-10T16:44:30.771Z,54.98
2022-09-10T16:46:59.667Z,55.52
2022-09-10T16:49:27.778Z,56.19
2022-09-10T16:51:55.049Z,56.04
2022-09-10T16:54:22.762Z,56.47
2022-09-10T16:56:50.821Z,56.62
2022-09-10T16:59:18.096Z,56.52
2022-09-10T17:01:48.209Z,56.56
2022-09-10T17:04:24.621Z,56.64
2022-09-10T17:06:55.745Z,56.66
2022-09-10T17:09:23.004Z,56.68
2022-09-10T17:11:49.926Z,56.82
2022-09-10T17:14:16.957Z,57.02
2022-09-10T17:16:44.610Z,57.12
2022-09-10T17:19:21.019Z,57.32
2022-09-10T17:21:52.811Z,57.25
2022-09-10T17:24:23.073Z,57.35
2022-09-10T17:26:51.649Z,57.11
2022-09-10T17:29:24.172Z,56.90
2022-09-10T17:31:52.434Z,56.60
2022-09-10T17:34:24.963Z,56.60
2022-09-10T17:36:52.210Z,56.99
2022-09-10T17:39:19.548Z,56.78
2022-09-10T17:41:46.696Z,56.81
2022-09-10T17:44:14.906Z,56.92
2022-09-10T17:46:43.278Z,57.27
2022-09-10T17:49:13.763Z,57.25
2022-09-10T17:51:41.295Z,57.19
2022-09-10T17:54:08.741Z,57.58
2022-09-10T17:56:38.269Z,56.97
2022-09-10T17:59:06.425Z,56.75
2022-09-10T18:01:39.298Z,56.61
2022-09-10T18:04:09.117Z,56.04
2022-09-10T18:06:38.067Z,56.71
2022-09-10T18:09:06.375Z,57.21
2022-09-10T18:11:38.062Z,58.03
2022-09-10T18:14:05.860Z,58.13
2022-09-10T18:16:34.773Z,58.82
2022-09-10T18:19:13.543Z,58.80
2022-09-10T18:21:44.250Z,59.17
2022-09-10T18:24:23.038Z,59.56
2022-09-10T18:26:51.666Z,59.76
2022-09-10T18:29:22.005Z,59.85
2022-09-10T18:31:54.850Z,59.95
2022-09-10T18:34:24.964Z,60.13
2022-09-10T18:36:58.258Z,60.70
2022-09-10T18:39:30.754Z,60.82
2022-09-10T18:41:59.366Z,60.59
2022-09-10T18:44:29.147Z,60.17
2022-09-10T18:46:56.414Z,60.25
2022-09-10T18:49:24.979Z,59.99
2022-09-10T18:51:54.365Z,60.65
2022-09-10T18:54:22.756Z,61.11
2022-09-10T18:56:50.826Z,60.81
2022-09-10T18:59:22.332Z,61.25
2022-09-10T19:01:51.563Z,61.24
2022-09-10T19:04:24.448Z,61.54
2022-09-10T19:06:52.083Z,61.47
2022-09-10T19:09:24.659Z,61.49
2022-09-10T19:11:56.266Z,61.89
2022-09-10T19:14:31.464Z,61.66
2022-09-10T19:17:00.729Z,61.71
2022-09-10T19:19:36.885Z,61.76
2022-09-10T19:22:10.611Z,62.13
2022-09-10T19:24:53.959Z,62.02
2022-09-10T19:27:22.601Z,61.62
2022-09-10T19:29:50.666Z,61.80
2022-09-10T19:32:20.249Z,61.53
2022-09-10T19:34:51.405Z,61.62
2022-09-10T19:37:27.059Z,61.55
2022-09-10T19:39:57.862Z,61.67
2022-09-10T19:42:28.214Z,61.71
2022-09-10T19:44:55.321Z,61.71
2022-09-10T19:47:22.993Z,61.68
2022-09-10T19:49:51.563Z,61.49
2022-09-10T19:52:21.268Z,61.58
2022-09-10T19:54:50.020Z,61.67
2022-09-10T19:57:18.267Z,61.74
2022-09-10T19:59:46.089Z,61.81
2022-09-10T20:02:14.081Z,62.01
2022-09-10T20:04:41.590Z,62.14
2022-09-10T20:07:09.382Z,62.16
2022-09-10T20:09:40.244Z,62.35
2022-09-10T20:12:10.879Z,62.34
2022-09-10T20:14:38.946Z,62.38
2022-09-10T20:17:06.490Z,62.61
2022-09-10T20:19:34.454Z,62.19
2022-09-10T20:22:01.905Z,62.40
2022-09-10T20:24:29.273Z,62.52
2022-09-10T20:26:57.465Z,62.84
2022-09-10T20:29:26.103Z,62.80
2022-09-10T20:31:53.437Z,62.75
2022-09-10T20:34:23.011Z,62.80
2022-09-10T20:36:52.076Z,62.74
2022-09-10T20:39:22.287Z,62.67
2022-09-10T20:41:49.818Z,62.89
2022-09-10T20:44:18.454Z,62.94
2022-09-10T20:46:47.534Z,63.00
2022-09-10T20:49:16.711Z,63.19
2022-09-10T20:51:46.153Z,62.92
2022-09-10T20:54:17.346Z,63.41
2022-09-10T20:56:46.216Z,63.05
2022-09-10T20:59:16.054Z,63.38
2022-09-10T21:01:46.751Z,63.10
2022-09-10T21:04:14.673Z,63.29
2022-09-10T21:06:43.215Z,63.19
2022-09-10T21:09:11.565Z,63.38
2022-09-10T21:11:39.378Z,63.30
2022-09-10T21:14:08.558Z,63.33
2022-09-10T21:16:38.661Z,63.41
2022-09-10T21:19:11.630Z,63.27
2022-09-10T21:21:43.052Z,63.60
2022-09-10T21:24:28.437Z,63.42
2022-09-10T21:26:56.340Z,63.42
2022-09-10T21:29:26.978Z,63.73
2022-09-10T21:31:56.843Z,63.75
2022-09-10T21:34:24.168Z,63.83
2022-09-10T21:37:04.914Z,64.02
2022-09-10T21:39:32.210Z,63.79
2022-09-10T21:42:00.584Z,63.78
2022-09-10T21:44:28.664Z,63.98
2022-09-10T21:46:56.005Z,63.96
2022-09-10T21:49:23.223Z,64.15
2022-09-10T21:51:50.789Z,64.13
2022-09-10T21:54:21.231Z,64.06
2022-09-10T21:56:52.369Z,64.45
2022-09-10T21:59:21.974Z,64.19
2022-09-10T22:01:50.279Z,64.57
2022-09-10T22:04:22.465Z,64.26
2022-09-10T22:06:51.170Z,64.50
2022-09-10T22:09:20.271Z,64.46
2022-09-10T22:11:50.854Z,64.33
2022-09-10T22:14:22.287Z,64.15
2022-09-10T22:16:49.659Z,64.61
2022-09-10T22:19:23.865Z,64.60
2022-09-10T22:21:51.809Z,64.46
2022-09-10T22:24:19.464Z,64.72
2022-09-10T22:26:47.876Z,64.53
2022-09-10T22:29:20.180Z,64.62
2022-09-10T22:31:48.297Z,64.58
2022-09-10T22:34:16.958Z,64.56
2022-09-10T22:36:46.155Z,64.62
2022-09-10T22:39:24.841Z,64.56
2022-09-10T22:41:52.460Z,64.63
2022-09-10T22:44:20.569Z,64.69
2022-09-10T22:46:48.395Z,64.82
2022-09-10T22:49:20.344Z,64.59
2022-09-10T22:51:48.152Z,64.86
2022-09-10T22:54:15.537Z,64.69
2022-09-10T22:56:42.468Z,64.96
2022-09-10T22:59:14.087Z,64.95
2022-09-10T23:01:43.800Z,65.04
2022-09-10T23:04:11.991Z,64.76
2022-09-10T23:06:39.310Z,64.97
2022-09-10T23:09:16.978Z,65.00
2022-09-10T23:11:44.949Z,64.93
2022-09-10T23:14:16.192Z,64.77
2022-09-10T23:16:46.537Z,64.87
2022-09-10T23:19:17.442Z,65.06
2022-09-10T23:21:47.872Z,65.07
2022-09-10T23:24:17.432Z,65.12
2022-09-10T23:26:44.975Z,65.22
2022-09-10T23:29:13.247Z,64.95
2022-09-10T23:31:41.401Z,65.10
2022-09-10T23:34:12.068Z,65.05
2022-09-10T23:36:41.484Z,65.10
2022-09-10T23:39:12.767Z,65.05
2022-09-10T23:41:41.470Z,65.39
2022-09-10T23:44:10.154Z,65.30
2022-09-10T23:46:38.017Z,65.29
2022-09-10T23:49:05.866Z,65.08
2022-09-10T23:51:33.103Z,65.31
2022-09-10T23:54:00.737Z,65.49
2022-09-10T23:56:28.781Z,65.33
2022-09-10T23:58:56.583Z,65.35
